Time;durP1;ratioP1;P1;durP2;ratioP2;P2;SDS_P1;SDS_P2;PMS_P1;PMS_P2;Temp;Humidity;BMP_temperature;BMP_pressure;BME280_temperature;BME280_humidity;BME280_pressure;Samples;Min_cycle;Max_cycle;Signal;HPM_P1;HPM_P2
2023/05/10 00:01:06;;;;;;;;;0.50;0.50;;;;;15.37;75.77;100874.53;5058066;28;46855;-76
2023/05/10 00:03:31;;;;;;;;;1.25;0.00;;;;;15.40;75.50;100881.56;5059175;28;45283;-76
2023/05/10 00:05:57;;;;;;;;;1.00;1.00;;;;;15.38;75.65;100880.78;5059197;28;45500;-76
2023/05/10 00:08:22;;;;;;;;;0.00;0.00;;;;;15.38;75.53;100888.84;5057941;28;45540;-76
2023/05/10 00:10:48;;;;;;;;;1.00;1.00;;;;;15.38;75.76;100891.53;5054937;28;48667;-76
2023/05/10 00:13:13;;;;;;;;;0.50;0.50;;;;;15.32;75.12;100881.09;5058900;28;45483;-76
2023/05/10 00:15:38;;;;;;;;;1.00;1.00;;;;;15.30;75.54;100886.56;5056097;28;45477;-76
2023/05/10 00:18:04;;;;;;;;;2.25;0.00;;;;;15.24;75.32;100886.00;5051889;28;45350;-76
2023/05/10 00:20:29;;;;;;;;;1.50;0.00;;;;;15.11;75.32;100875.81;5044621;28;48013;-76
2023/05/10 00:22:55;;;;;;;;;2.00;0.50;;;;;15.16;75.15;100889.91;5050662;28;45384;-76
2023/05/10 00:25:21;;;;;;;;;0.00;0.00;;;;;15.10;75.13;100879.47;5057670;28;45287;-76
2023/05/10 00:27:47;;;;;;;;;1.00;1.00;;;;;15.12;74.80;100888.34;5058514;28;45521;-76
2023/05/10 00:30:12;;;;;;;;;0.00;0.00;;;;;15.10;74.61;100887.53;5045423;28;45371;-76
2023/05/10 00:32:37;;;;;;;;;0.25;0.25;;;;;15.08;74.58;100885.88;5058775;28;45322;-76
2023/05/10 00:35:03;;;;;;;;;1.00;1.00;;;;;15.04;74.60;100877.09;5049144;28;45278;-76
2023/05/10 00:37:28;;;;;;;;;1.00;0.00;;;;;14.95;74.43;100878.41;5056935;28;45250;-76
2023/05/10 00:39:54;;;;;;;;;1.00;0.00;;;;;15.01;74.02;100888.84;5057780;28;45322;-76
2023/05/10 00:42:19;;;;;;;;;3.75;1.75;;;;;14.97;74.16;100894.47;5058588;28;45211;-76
2023/05/10 00:44:44;;;;;;;;;0.25;0.25;;;;;14.90;73.80;100882.25;5040509;28;45367;-76
2023/05/10 00:47:10;;;;;;;;;0.75;0.00;;;;;14.85;73.95;100895.03;5027489;28;45955;-76
2023/05/10 00:49:36;;;;;;;;;2.25;0.25;;;;;14.79;74.29;100891.69;5045011;28;46366;-76
2023/05/10 00:52:02;;;;;;;;;1.50;0.00;;;;;14.80;74.00;100896.13;5056447;28;45588;-76
2023/05/10 00:54:28;;;;;;;;;2.25;0.00;;;;;14.79;73.96;100907.81;5041247;28;45473;-76
2023/05/10 00:56:53;;;;;;;;;0.00;0.00;;;;;14.77;74.18;100908.84;5043513;28;45506;-76
2023/05/10 00:59:19;;;;;;;;;0.75;0.00;;;;;14.75;74.06;100913.41;5061703;28;45968;-76
2023/05/10 01:01:45;;;;;;;;;0.00;0.00;;;;;14.72;73.97;100911.75;5061792;28;45363;-77
2023/05/10 01:04:12;;;;;;;;;0.50;0.00;;;;;14.71;73.57;100920.75;5061173;28;45340;-76
2023/05/10 01:06:38;;;;;;;;;0.00;0.00;;;;;14.68;73.36;100914.66;5047727;28;45378;-76
2023/05/10 01:09:04;;;;;;;;;1.00;1.00;;;;;14.49;73.23;100895.81;5060678;28;48290;-76
2023/05/10 01:11:29;;;;;;;;;0.00;0.00;;;;;14.64;73.13;100925.53;5057816;28;45236;-76
2023/05/10 01:13:57;;;;;;;;;0.00;0.00;;;;;14.64;73.06;100930.03;5061363;28;45287;-76
2023/05/10 01:16:24;;;;;;;;;0.00;0.00;;;;;14.62;73.07;100922.03;5052735;28;45453;-76
2023/05/10 01:18:51;;;;;;;;;0.00;0.00;;;;;14.50;73.20;100897.53;5059888;28;46226;-76
2023/05/10 01:21:42;;;;;;;;;1.75;1.00;;;;;14.58;73.35;100922.22;5061720;28;45262;-76
2023/05/10 01:24:42;;;;;;;;;0.75;0.00;;;;;14.54;73.37;100916.13;5060826;28;45418;-76
2023/05/10 01:27:31;;;;;;;;;1.00;1.00;;;;;14.53;73.07;100916.19;5049227;28;45407;-76
2023/05/10 01:30:18;;;;;;;;;1.25;0.00;;;;;14.49;72.67;100919.97;5060822;28;45595;-76
2023/05/10 01:32:51;;;;;;;;;0.00;0.00;;;;;14.42;73.39;100916.69;5042734;28;45369;-76
2023/05/10 01:35:22;;;;;;;;;0.25;0.00;;;;;14.44;73.09;100922.88;5039777;28;45308;-76
2023/05/10 01:38:11;;;;;;;;;0.00;0.00;;;;;14.40;73.00;100919.44;5058963;28;45322;-76
2023/05/10 01:40:57;;;;;;;;;0.00;0.00;;;;;14.37;73.24;100911.53;5061385;28;45325;-76
2023/05/10 01:43:30;;;;;;;;;0.25;0.00;;;;;14.36;72.72;100919.66;5049597;28;45503;-76
2023/05/10 01:46:10;;;;;;;;;0.75;0.00;;;;;14.19;73.20;100896.25;5059841;28;45504;-76
2023/05/10 01:48:37;;;;;;;;;0.25;0.25;;;;;14.27;73.53;100921.81;5060205;28;45297;-76
2023/05/10 01:51:05;;;;;;;;;0.75;0.00;;;;;14.24;73.00;100907.66;5042264;28;46632;-76
2023/05/10 01:53:32;;;;;;;;;0.00;0.00;;;;;14.29;72.84;100918.19;5060471;28;45536;-76
2023/05/10 01:56:00;;;;;;;;;1.00;0.00;;;;;14.29;72.87;100919.06;5061000;28;45410;-76
2023/05/10 01:58:32;;;;;;;;;1.50;0.00;;;;;14.27;72.90;100913.75;5059703;28;45302;-76
2023/05/10 02:01:01;;;;;;;;;0.00;0.00;;;;;14.24;72.97;100921.94;5041074;28;48341;-76
2023/05/10 02:03:28;;;;;;;;;1.25;0.00;;;;;14.23;73.11;100928.28;5060963;28;45389;-76
2023/05/10 02:05:55;;;;;;;;;0.50;0.00;;;;;14.23;72.84;100930.97;5060857;28;45391;-76
2023/05/10 02:08:22;;;;;;;;;0.00;0.00;;;;;14.20;73.25;100936.47;5052017;28;45403;-77
2023/05/10 02:10:50;;;;;;;;;0.00;0.00;;;;;14.21;72.85;100938.19;5057147;28;45286;-76
2023/05/10 02:13:16;;;;;;;;;0.00;0.00;;;;;14.22;72.66;100945.31;5060628;28;45553;-76
2023/05/10 02:15:43;;;;;;;;;0.00;0.00;;;;;14.15;73.17;100937.59;5056178;28;46710;-76
2023/05/10 02:18:11;;;;;;;;;0.00;0.00;;;;;14.14;72.66;100941.22;5054726;28;45367;-76
2023/05/10 02:20:38;;;;;;;;;1.00;0.00;;;;;14.14;72.82;100930.50;5060021;28;45303;-76
2023/05/10 02:23:04;;;;;;;;;0.00;0.00;;;;;13.99;72.67;100907.88;5042754;28;45292;-76
2023/05/10 02:25:32;;;;;;;;;0.50;0.00;;;;;14.04;72.74;100922.81;5050974;28;45493;-76
2023/05/10 02:28:01;;;;;;;;;1.00;0.00;;;;;14.09;72.91;100936.06;5060312;28;45248;-76
2023/05/10 02:30:28;;;;;;;;;0.00;0.00;;;;;14.06;73.20;100934.34;5059640;28;48014;-76
2023/05/10 02:32:55;;;;;;;;;0.00;0.00;;;;;13.99;72.65;100915.94;5060360;28;45554;-76
2023/05/10 02:35:22;;;;;;;;;0.00;0.00;;;;;14.05;72.51;100927.28;5056989;28;45496;-76
2023/05/10 02:37:48;;;;;;;;;0.00;0.00;;;;;14.07;72.94;100932.56;5058824;28;45583;-76
2023/05/10 02:40:16;;;;;;;;;0.00;0.00;;;;;14.07;73.17;100935.25;5060652;28;45348;-76
2023/05/10 02:42:43;;;;;;;;;0.00;0.00;;;;;14.06;73.31;100931.69;5060065;28;45351;-76
2023/05/10 02:45:13;;;;;;;;;1.00;0.00;;;;;14.06;72.90;100925.44;5060649;28;45337;-76
2023/05/10 02:47:38;;;;;;;;;0.00;0.00;;;;;14.08;72.85;100934.28;5059638;28;45305;-76
2023/05/10 02:50:04;;;;;;;;;0.00;0.00;;;;;14.05;73.05;100935.31;5060416;28;45927;-76
2023/05/10 02:52:39;;;;;;;;;0.00;0.00;;;;;14.03;73.05;100921.09;5060108;28;45233;-76
2023/05/10 02:55:05;;;;;;;;;0.00;0.00;;;;;14.00;72.43;100923.91;5060452;28;45298;-76
2023/05/10 02:57:35;;;;;;;;;0.00;0.00;;;;;13.96;72.91;100924.09;5060253;28;45299;-76
2023/05/10 03:00:02;;;;;;;;;0.00;0.00;;;;;13.92;72.92;100920.69;5060192;28;46236;-76
2023/05/10 03:02:30;;;;;;;;;0.00;0.00;;;;;13.88;73.17;100908.31;5059729;28;45619;-76
2023/05/10 03:04:55;;;;;;;;;1.00;0.00;;;;;13.89;73.19;100904.72;5046953;28;45367;-76
2023/05/10 03:07:21;;;;;;;;;1.00;0.00;;;;;13.95;73.58;100906.25;5046101;28;45272;-77
2023/05/10 03:09:48;;;;;;;;;0.50;0.00;;;;;13.90;73.09;100903.78;5058795;28;45362;-76
2023/05/10 03:12:19;;;;;;;;;0.00;0.00;;;;;13.90;73.47;100914.53;5054647;28;45334;-76
2023/05/10 03:15:07;;;;;;;;;1.00;0.00;;;;;13.87;73.50;100911.97;5041131;28;45351;-77
2023/05/10 03:17:56;;;;;;;;;0.00;0.00;;;;;13.86;73.50;100921.81;5041284;28;45989;-76
2023/05/10 03:20:29;;;;;;;;;0.00;0.00;;;;;13.84;73.86;100912.09;5059760;28;46139;-76
2023/05/10 03:23:08;;;;;;;;;0.00;0.00;;;;;13.87;73.59;100915.50;5059762;28;45275;-76
2023/05/10 03:25:34;;;;;;;;;0.00;0.00;;;;;13.95;73.81;100919.66;5059882;28;45334;-76
2023/05/10 03:28:01;;;;;;;;;0.00;0.00;;;;;13.94;74.11;100923.31;5057522;28;45278;-76
2023/05/10 03:30:28;;;;;;;;;0.00;0.00;;;;;13.93;74.19;100919.72;5059078;28;46825;-76
2023/05/10 03:32:54;;;;;;;;;0.25;0.25;;;;;13.87;73.91;100915.50;5058662;28;45549;-76
2023/05/10 03:35:19;;;;;;;;;0.00;0.00;;;;;13.93;74.02;100916.19;5059194;28;45633;-76
2023/05/10 03:37:44;;;;;;;;;1.00;0.00;;;;;13.92;74.26;100917.16;5057721;28;45386;-77
2023/05/10 03:40:10;;;;;;;;;0.00;0.00;;;;;13.92;74.19;100914.47;5041841;28;48204;-76
2023/05/10 03:42:36;;;;;;;;;0.00;0.00;;;;;13.94;74.12;100917.94;5041261;28;45321;-76
2023/05/10 03:45:01;;;;;;;;;1.00;0.25;;;;;13.91;74.27;100918.94;5058854;28;45338;-76
2023/05/10 03:47:27;;;;;;;;;0.00;0.00;;;;;13.93;74.38;100921.56;5059463;28;45232;-76
2023/05/10 03:49:52;;;;;;;;;0.00;0.00;;;;;13.88;74.67;100913.69;5059374;28;45834;-76
2023/05/10 03:52:18;;;;;;;;;0.00;0.00;;;;;13.56;74.29;100856.94;5041374;28;45838;-76
2023/05/10 03:54:43;;;;;;;;;1.00;0.00;;;;;13.90;74.34;100917.22;5058844;28;45616;-76
2023/05/10 03:57:09;;;;;;;;;0.75;0.75;;;;;13.85;75.00;100916.53;5059397;28;45220;-76
2023/05/10 03:59:35;;;;;;;;;1.00;0.00;;;;;13.84;75.04;100912.09;5057903;28;45358;-76
2023/05/10 04:02:00;;;;;;;;;3.00;0.00;;;;;13.63;75.40;100879.91;5059181;28;45279;-76
2023/05/10 04:04:25;;;;;;;;;0.00;0.00;;;;;13.86;75.79;100910.22;5058463;28;45440;-76
2023/05/10 04:06:50;;;;;;;;;0.00;0.00;;;;;13.87;76.11;100911.97;5058357;28;45331;-76
2023/05/10 04:09:16;;;;;;;;;0.00;0.00;;;;;13.86;76.15;100905.72;5059099;28;47227;-76
2023/05/10 04:11:42;;;;;;;;;1.00;0.25;;;;;13.79;76.36;100893.50;5055173;28;45293;-76
2023/05/10 04:14:08;;;;;;;;;1.00;0.00;;;;;13.89;76.49;100908.25;5058621;28;45223;-76
2023/05/10 04:16:33;;;;;;;;;0.00;0.00;;;;;13.85;76.34;100895.94;5049467;28;45472;-76
2023/05/10 04:18:59;;;;;;;;;0.00;0.00;;;;;13.81;76.40;100901.50;5058930;28;45393;-77
2023/05/10 04:21:25;;;;;;;;;0.00;0.00;;;;;13.76;76.36;100885.59;5058970;28;45491;-76
2023/05/10 04:23:50;;;;;;;;;0.00;0.00;;;;;13.83;76.43;100902.28;5058885;28;45383;-76
2023/05/10 04:26:15;;;;;;;;;0.00;0.00;;;;;13.76;76.69;100895.47;5056902;28;45572;-76
2023/05/10 04:28:41;;;;;;;;;0.00;0.00;;;;;13.79;77.24;100903.38;5042070;28;46944;-77
2023/05/10 04:31:08;;;;;;;;;0.00;0.00;;;;;13.78;77.27;100907.88;5060861;28;45397;-76
2023/05/10 04:33:33;;;;;;;;;0.00;0.00;;;;;13.79;77.52;100908.75;5062420;28;45244;-76
2023/05/10 04:35:59;;;;;;;;;1.00;0.00;;;;;13.82;77.67;100908.63;5058527;28;45318;-76
2023/05/10 04:38:25;;;;;;;;;0.00;0.00;;;;;13.82;77.86;100906.78;5054684;28;45295;-76
2023/05/10 04:40:50;;;;;;;;;0.00;0.00;;;;;13.80;78.04;100905.09;5061345;28;46904;-76
2023/05/10 04:43:16;;;;;;;;;0.00;0.00;;;;;13.79;78.23;100903.38;5062147;28;45208;-76
2023/05/10 04:45:41;;;;;;;;;0.25;0.25;;;;;13.80;78.67;100900.63;5062105;28;45269;-76
2023/05/10 04:48:07;;;;;;;;;0.00;0.00;;;;;13.78;78.65;100896.25;5061988;28;53758;-76
2023/05/10 04:50:32;;;;;;;;;1.00;1.00;;;;;13.67;78.77;100881.50;5061871;28;45360;-76
2023/05/10 04:52:58;;;;;;;;;0.00;0.00;;;;;13.76;78.84;100896.31;5057723;28;45504;-76
2023/05/10 04:55:23;;;;;;;;;1.00;1.00;;;;;13.73;79.13;100892.91;5043770;28;45521;-76
2023/05/10 04:57:48;;;;;;;;;0.75;0.50;;;;;13.80;79.68;100900.63;5060241;28;53483;-76
2023/05/10 05:00:14;;;;;;;;;0.75;0.75;;;;;13.78;79.35;100891.78;5058871;28;45350;-76
2023/05/10 05:02:43;;;;;;;;;0.00;0.00;;;;;13.74;79.48;100889.28;5061289;28;45421;-77
2023/05/10 05:05:09;;;;;;;;;1.00;1.00;;;;;13.59;79.72;100864.88;5060621;28;46241;-76
2023/05/10 05:07:34;;;;;;;;;1.00;1.00;;;;;13.73;79.77;100892.91;5060520;28;50246;-76
2023/05/10 05:09:59;;;;;;;;;1.00;1.00;;;;;13.64;79.77;100884.31;5058717;28;45280;-76
2023/05/10 05:12:25;;;;;;;;;0.00;0.00;;;;;13.73;79.86;100892.91;5061707;28;45499;-76
2023/05/10 05:14:50;;;;;;;;;1.00;0.75;;;;;13.73;80.45;100898.28;5061579;28;45576;-76
2023/05/10 05:17:15;;;;;;;;;1.25;1.00;;;;;13.72;80.55;100894.72;5042742;28;47067;-76
2023/05/10 05:19:41;;;;;;;;;1.50;1.00;;;;;13.73;80.62;100903.63;5059619;28;45243;-76
2023/05/10 05:22:07;;;;;;;;;1.25;0.50;;;;;13.70;81.29;100901.97;5037326;28;45544;-76
2023/05/10 05:24:39;;;;;;;;;1.00;1.00;;;;;13.68;81.41;100888.63;5044084;28;45385;-76
2023/05/10 05:27:05;;;;;;;;;1.75;1.00;;;;;13.68;81.19;100894.00;5061387;28;45259;-76
2023/05/10 05:29:31;;;;;;;;;1.00;1.00;;;;;13.75;81.25;100897.28;5061348;28;45401;-76
2023/05/10 05:31:56;;;;;;;;;1.00;1.00;;;;;13.72;81.28;100892.03;5058985;28;45637;-76
2023/05/10 05:34:21;;;;;;;;;0.25;0.25;;;;;13.67;81.10;100894.91;5053265;28;45358;-81
2023/05/10 05:36:47;;;;;;;;;0.00;0.00;;;;;13.77;81.14;100906.13;5059378;28;47069;-76
2023/05/10 05:39:13;;;;;;;;;1.00;1.00;;;;;13.76;81.20;100906.19;5061438;28;45201;-76
2023/05/10 05:41:38;;;;;;;;;1.00;0.25;;;;;13.66;81.57;100885.09;5059154;28;45199;-76
2023/05/10 05:44:03;;;;;;;;;1.00;0.75;;;;;13.80;81.44;100905.09;5060027;28;45268;-76
2023/05/10 05:46:29;;;;;;;;;1.00;1.00;;;;;13.79;81.50;100901.56;5059890;28;45460;-76
2023/05/10 05:48:54;;;;;;;;;3.00;2.00;;;;;13.82;81.41;100908.63;5060016;28;45330;-76
2023/05/10 05:51:20;;;;;;;;;2.00;1.25;;;;;13.81;81.46;100904.19;5061372;28;45291;-76
2023/05/10 05:53:45;;;;;;;;;1.00;1.00;;;;;13.80;81.44;100914.06;5060945;28;45334;-76
2023/05/10 05:56:10;;;;;;;;;1.75;1.50;;;;;13.79;81.66;100917.66;5060919;28;46179;-76
2023/05/10 05:58:36;;;;;;;;;1.25;0.50;;;;;13.80;81.85;100919.41;5060492;28;45494;-76
2023/05/10 06:01:01;;;;;;;;;1.00;1.00;;;;;13.77;81.82;100914.19;5061106;28;45327;-76
2023/05/10 06:03:26;;;;;;;;;2.50;2.50;;;;;13.79;81.76;100906.94;5059411;28;45398;-76
2023/05/10 06:05:52;;;;;;;;;2.00;1.00;;;;;13.71;81.55;100901.00;5058257;28;47770;-76
2023/05/10 06:08:17;;;;;;;;;1.25;1.25;;;;;13.75;82.24;100904.44;5059440;28;45477;-76
2023/05/10 06:10:42;;;;;;;;;2.75;2.00;;;;;13.93;82.21;100930.47;5042473;28;45380;-76
2023/05/10 06:13:08;;;;;;;;;1.00;1.00;;;;;13.90;82.16;100922.56;5060220;28;45391;-76
2023/05/10 06:15:33;;;;;;;;;2.00;2.00;;;;;13.84;82.43;100907.59;5058852;28;45482;-76
2023/05/10 06:17:59;;;;;;;;;1.75;1.75;;;;;13.95;82.72;100931.31;5055831;28;45480;-76
2023/05/10 06:20:25;;;;;;;;;2.50;1.00;;;;;13.85;82.51;100914.72;5057476;28;45432;-76
2023/05/10 06:22:50;;;;;;;;;1.00;1.00;;;;;13.88;83.09;100919.97;5038536;28;45536;-78
2023/05/10 06:25:17;;;;;;;;;2.50;2.50;;;;;13.99;83.02;100938.25;5059517;28;48046;-78
2023/05/10 06:27:43;;;;;;;;;1.75;1.75;;;;;14.00;83.56;100937.34;5059517;28;45461;-78
2023/05/10 06:30:09;;;;;;;;;2.25;2.00;;;;;13.98;83.27;100933.84;5060363;28;45284;-78
2023/05/10 06:32:34;;;;;;;;;2.75;2.00;;;;;13.96;83.07;100927.66;5042149;28;45647;-78
2023/05/10 06:34:59;;;;;;;;;0.75;0.75;;;;;13.95;83.51;100923.25;5059890;28;45415;-78
2023/05/10 06:37:25;;;;;;;;;1.25;1.25;;;;;14.03;83.75;100931.84;5058707;28;48348;-78
2023/05/10 06:39:50;;;;;;;;;1.00;1.00;;;;;13.97;83.48;100921.38;5058704;28;45322;-78
2023/05/10 06:42:15;;;;;;;;;3.00;3.00;;;;;14.09;83.29;100942.28;5060083;28;45306;-78
2023/05/10 06:44:41;;;;;;;;;4.00;2.00;;;;;14.05;83.36;100931.78;5059144;28;54103;-78
2023/05/10 06:47:06;;;;;;;;;3.00;2.00;;;;;14.08;83.21;100940.56;5059994;28;45399;-82
2023/05/10 06:49:32;;;;;;;;;2.00;2.00;;;;;14.12;83.45;100948.47;5060263;28;45238;-82
2023/05/10 06:51:57;;;;;;;;;1.25;1.25;;;;;14.01;83.52;100930.16;5058879;28;45416;-82
2023/05/10 06:54:23;;;;;;;;;0.25;0.25;;;;;14.12;83.37;100960.09;5060091;28;45397;-82
2023/05/10 06:56:48;;;;;;;;;1.00;1.00;;;;;14.07;83.17;100946.84;5057081;28;45365;-79
2023/05/10 06:59:14;;;;;;;;;2.00;1.00;;;;;14.13;83.22;100950.22;5058841;28;45485;-82
2023/05/10 07:01:40;;;;;;;;;2.75;2.75;;;;;14.15;83.54;100949.22;5052939;28;45509;-82
2023/05/10 07:04:07;;;;;;;;;2.25;2.25;;;;;14.10;83.93;100943.19;5060014;28;46173;-82
2023/05/10 07:06:33;;;;;;;;;3.00;2.00;;;;;14.18;83.73;100964.31;5050755;28;45250;-74
2023/05/10 07:08:58;;;;;;;;;2.75;2.75;;;;;14.19;83.78;100966.06;5051590;28;45343;-81
2023/05/10 07:11:24;;;;;;;;;2.00;2.00;;;;;14.18;83.97;100956.25;5053205;28;45591;-81
2023/05/10 07:13:50;;;;;;;;;2.00;2.00;;;;;14.17;84.18;100957.22;5038954;28;52118;-80
2023/05/10 07:16:16;;;;;;;;;3.00;2.00;;;;;14.20;84.32;100965.09;5057526;28;45454;-80
2023/05/10 07:18:41;;;;;;;;;1.50;1.50;;;;;14.17;84.27;100957.22;5059524;28;45386;-80
2023/05/10 07:21:06;;;;;;;;;1.75;1.75;;;;;14.13;84.06;100950.22;5058513;28;45549;-79
2023/05/10 07:23:32;;;;;;;;;3.00;3.00;;;;;14.16;83.85;100955.44;5056972;28;46239;-80
2023/05/10 07:25:57;;;;;;;;;1.75;1.75;;;;;14.22;83.90;100957.88;5059511;28;46204;-80
2023/05/10 07:28:23;;;;;;;;;4.50;2.50;;;;;14.28;84.00;100962.94;5055029;28;45320;-80
2023/05/10 07:30:49;;;;;;;;;4.00;2.25;;;;;14.31;83.80;100970.00;5047095;28;45361;-77
2023/05/10 07:33:15;;;;;;;;;3.50;3.50;;;;;14.29;84.16;100963.84;5029030;28;45395;-77
2023/05/10 07:35:41;;;;;;;;;3.00;2.00;;;;;14.34;84.18;100970.75;5033589;28;45281;-76
2023/05/10 07:38:07;;;;;;;;;2.00;2.00;;;;;14.36;84.04;100974.22;5028811;28;45416;-78
2023/05/10 07:40:32;;;;;;;;;1.50;1.50;;;;;14.40;83.61;100983.00;5039320;28;45434;-77
2023/05/10 07:42:57;;;;;;;;;1.00;1.00;;;;;14.42;83.34;100975.78;5029665;28;45746;-78
2023/05/10 07:45:24;;;;;;;;;2.00;2.00;;;;;14.34;83.64;100959.13;5045816;28;45681;-78
2023/05/10 07:47:50;;;;;;;;;1.75;0.75;;;;;14.42;83.72;100976.66;5038913;28;45771;-78
2023/05/10 07:50:15;;;;;;;;;1.25;1.25;;;;;14.40;83.99;100973.16;5039217;28;45263;-78
2023/05/10 07:52:41;;;;;;;;;1.00;1.00;;;;;14.46;83.73;100977.38;5038683;28;45332;-78
2023/05/10 07:55:07;;;;;;;;;2.25;2.00;;;;;14.39;83.73;100970.53;5054653;28;45446;-78
2023/05/10 07:57:36;;;;;;;;;1.75;1.75;;;;;14.34;83.57;100959.13;5036551;28;45251;-78
2023/05/10 08:00:03;;;;;;;;;4.25;2.25;;;;;14.33;84.11;100966.28;5024259;28;45397;-78
2023/05/10 08:02:29;;;;;;;;;5.00;3.50;;;;;14.42;84.19;100986.53;5028218;28;45421;-78
2023/05/10 08:04:55;;;;;;;;;3.00;2.00;;;;;14.37;84.27;100975.97;5054410;28;45338;-78
2023/05/10 08:07:21;;;;;;;;;4.50;3.00;;;;;14.41;84.82;100980.25;5025787;28;45430;-78
2023/05/10 08:09:46;;;;;;;;;3.25;2.00;;;;;14.20;84.44;100949.88;5038603;28;45291;-78
2023/05/10 08:12:12;;;;;;;;;2.50;2.50;;;;;14.28;84.54;100954.91;5036092;28;47594;-78
2023/05/10 08:14:37;;;;;;;;;3.25;3.25;;;;;14.24;84.53;100953.31;5038380;28;45305;-78
2023/05/10 08:17:03;;;;;;;;;2.00;2.00;;;;;14.42;85.07;100981.16;5024403;28;45433;-78
2023/05/10 08:19:28;;;;;;;;;3.00;3.00;;;;;14.41;85.34;100985.63;5030626;28;45275;-79
2023/05/10 08:21:55;;;;;;;;;2.75;2.75;;;;;14.37;85.01;100977.81;5034559;28;45422;-79
2023/05/10 08:24:31;;;;;;;;;3.00;3.00;;;;;14.32;84.56;100983.38;5030802;28;45488;-79
2023/05/10 08:26:57;;;;;;;;;3.00;3.00;;;;;14.27;84.38;100980.03;5037584;28;45402;-80
2023/05/10 08:29:22;;;;;;;;;2.75;2.75;;;;;14.25;84.49;100971.16;5037044;28;45454;-79
2023/05/10 08:31:47;;;;;;;;;2.75;2.00;;;;;14.21;84.25;100962.34;5038483;28;45266;-79
2023/05/10 08:34:14;;;;;;;;;4.00;4.00;;;;;14.30;85.34;100982.56;5051515;28;45389;-79
2023/05/10 08:36:40;;;;;;;;;3.00;2.75;;;;;14.27;85.15;100983.56;5040265;28;45451;-79
2023/05/10 08:39:05;;;;;;;;;3.75;3.50;;;;;14.30;85.44;100989.72;5050942;28;45534;-78
2023/05/10 08:41:33;;;;;;;;;4.25;3.50;;;;;14.31;85.00;100991.50;5058504;28;47041;-78
2023/05/10 08:44:05;;;;;;;;;3.00;3.00;;;;;14.37;84.86;100999.28;5053061;28;45300;-78
2023/05/10 08:46:35;;;;;;;;;3.25;3.25;;;;;14.46;85.23;101015.84;5058517;28;45365;-79
2023/05/10 08:49:04;;;;;;;;;4.25;3.75;;;;;14.43;84.93;101012.41;5058104;28;45888;-79
2023/05/10 08:51:35;;;;;;;;;4.25;4.25;;;;;14.44;84.79;101017.72;5057513;28;47306;-78
2023/05/10 08:54:01;;;;;;;;;4.00;3.75;;;;;14.35;85.18;100999.34;5054732;28;45255;-78
2023/05/10 08:56:27;;;;;;;;;4.50;4.50;;;;;14.51;85.70;101022.84;5058495;28;45448;-78
2023/05/10 08:58:52;;;;;;;;;3.00;3.00;;;;;14.52;85.53;101027.28;5055010;28;45453;-79
2023/05/10 09:01:20;;;;;;;;;2.50;2.00;;;;;14.52;85.50;101030.84;5049193;28;45350;-80
2023/05/10 09:03:46;;;;;;;;;4.50;4.00;;;;;14.45;85.68;101010.56;5055772;28;45838;-80
2023/05/10 09:06:13;;;;;;;;;4.25;4.00;;;;;14.48;85.61;101020.28;5056378;28;45323;-78
2023/05/10 09:08:39;;;;;;;;;2.50;2.50;;;;;14.59;86.04;101042.22;5040094;28;45570;-78
2023/05/10 09:11:05;;;;;;;;;4.00;4.00;;;;;14.53;85.61;101034.38;5054347;28;45728;-77
2023/05/10 09:13:31;;;;;;;;;5.25;5.00;;;;;14.54;86.00;101030.78;5057419;28;45187;-78
2023/05/10 09:15:57;;;;;;;;;5.00;4.25;;;;;14.55;86.00;101032.50;5045624;28;45212;-78
2023/05/10 09:18:22;;;;;;;;;4.00;3.00;;;;;14.62;86.29;101045.63;5049953;28;45272;-78
2023/05/10 09:20:48;;;;;;;;;5.25;4.75;;;;;14.70;85.87;101055.16;5042484;28;50292;-78
2023/05/10 09:23:14;;;;;;;;;5.50;4.00;;;;;14.73;85.93;101058.56;5057474;28;45532;-78
2023/05/10 09:25:41;;;;;;;;;5.25;5.25;;;;;14.77;85.46;101059.34;5045882;28;45308;-79
2023/05/10 09:28:08;;;;;;;;;7.75;4.75;;;;;14.79;85.36;101065.50;5030691;28;45409;-79
2023/05/10 09:30:33;;;;;;;;;4.00;4.00;;;;;14.79;85.70;101066.38;5058322;28;45329;-79
2023/05/10 09:33:00;;;;;;;;;4.00;4.00;;;;;14.78;85.13;101066.44;5056760;28;45246;-79
2023/05/10 09:35:28;;;;;;;;;6.25;5.25;;;;;14.77;85.71;101062.88;5054472;28;45286;-79
2023/05/10 09:37:55;;;;;;;;;7.00;5.50;;;;;14.85;86.13;101069.72;5052264;28;45197;-79
2023/05/10 09:40:23;;;;;;;;;7.75;5.25;;;;;14.84;85.96;101073.38;5060308;28;45438;-79
2023/05/10 09:42:59;;;;;;;;;7.00;4.75;;;;;14.85;86.74;101070.63;5054375;28;45299;-79
2023/05/10 09:45:30;;;;;;;;;6.50;5.00;;;;;14.89;86.15;101084.78;5061265;28;45335;-77
2023/05/10 09:47:56;;;;;;;;;7.75;5.50;;;;;14.90;85.99;101081.13;5038178;28;46363;-77
2023/05/10 09:50:22;;;;;;;;;7.00;5.50;;;;;14.72;85.82;101058.66;5060175;28;46095;-78
2023/05/10 09:52:52;;;;;;;;;7.75;6.00;;;;;14.91;85.48;101090.97;5056538;28;45314;-81
2023/05/10 09:55:23;;;;;;;;;6.25;5.25;;;;;14.85;85.76;101085.84;5061166;28;45298;-80
2023/05/10 09:57:49;;;;;;;;;10.50;7.00;;;;;14.92;85.40;101092.72;5056504;28;45391;-79
2023/05/10 10:00:19;;;;;;;;;7.75;6.75;;;;;14.92;85.05;101098.09;5053051;28;45417;-80
2023/05/10 10:02:54;;;;;;;;;6.75;5.00;;;;;14.91;85.04;101090.97;5060084;28;45417;-79
2023/05/10 10:05:19;;;;;;;;;6.75;6.75;;;;;14.89;85.18;101084.78;5043089;28;45339;-79
2023/05/10 10:07:45;;;;;;;;;7.00;3.00;;;;;14.97;84.37;101099.63;5054760;28;45244;-80
2023/05/10 10:10:12;;;;;;;;;5.75;5.25;;;;;15.01;83.90;101094.97;5053399;28;45560;-80
2023/05/10 10:12:39;;;;;;;;;9.00;6.00;;;;;15.00;83.55;101094.09;5055458;28;45327;-80
2023/05/10 10:15:05;;;;;;;;;10.50;7.25;;;;;15.06;84.54;101101.00;5055838;28;45411;-80
2023/05/10 10:17:31;;;;;;;;;8.00;7.75;;;;;15.09;83.50;101091.94;5053413;28;45497;-80
2023/05/10 10:19:57;;;;;;;;;6.50;6.00;;;;;15.12;83.84;101095.38;5035257;28;47917;-80
2023/05/10 10:22:22;;;;;;;;;11.75;7.25;;;;;15.11;82.89;101092.75;5058378;28;45586;-80
2023/05/10 10:24:48;;;;;;;;;13.50;9.25;;;;;15.11;83.40;101092.75;5024832;28;45369;-80
2023/05/10 10:27:23;;;;;;;;;8.00;7.00;;;;;15.06;82.81;101081.31;5057489;28;45459;-80
2023/05/10 10:30:12;;;;;;;;;8.25;6.00;;;;;15.11;82.95;101093.59;5060108;28;46426;-81
2023/05/10 10:33:02;;;;;;;;;18.25;7.25;;;;;15.15;82.83;101100.59;5048719;28;45292;-78
2023/05/10 10:35:30;;;;;;;;;8.75;7.00;;;;;15.04;82.47;101077.84;5060001;28;45322;-78
2023/05/10 10:37:56;;;;;;;;;6.50;6.00;;;;;15.03;82.63;101078.78;5038634;28;45392;-78
2023/05/10 10:40:29;;;;;;;;;7.00;7.00;;;;;15.14;82.55;101095.28;5058059;28;47424;-78
2023/05/10 10:42:55;;;;;;;;;9.00;7.75;;;;;15.15;82.84;101103.28;5056559;28;45528;-79
2023/05/10 10:45:21;;;;;;;;;9.50;8.50;;;;;15.04;81.91;101075.16;5056347;28;45488;-78
2023/05/10 10:47:47;;;;;;;;;10.75;7.00;;;;;15.03;82.61;101076.94;5058188;28;45307;-78
2023/05/10 10:50:12;;;;;;;;;8.25;7.00;;;;;15.14;83.21;101090.78;5053164;28;45429;-79
2023/05/10 10:52:42;;;;;;;;;8.50;6.00;;;;;15.20;82.12;101095.00;5040690;28;45842;-79
2023/05/10 10:55:09;;;;;;;;;8.00;6.25;;;;;15.25;81.89;101095.69;5060304;28;45481;-79
2023/05/10 10:57:44;;;;;;;;;4.00;4.00;;;;;15.27;82.40;101101.84;5053701;28;45444;-79
2023/05/10 11:00:26;;;;;;;;;6.25;6.00;;;;;15.28;81.65;101100.88;5055108;28;45583;-79
2023/05/10 11:03:02;;;;;;;;;10.25;8.00;;;;;15.26;80.96;101104.63;5059159;28;45559;-79
2023/05/10 11:05:27;;;;;;;;;8.50;5.00;;;;;15.30;81.31;101100.81;5060056;28;45275;-79
2023/05/10 11:07:57;;;;;;;;;10.00;9.00;;;;;15.30;81.29;101096.34;5041994;28;45879;-79
2023/05/10 11:10:25;;;;;;;;;6.00;6.00;;;;;15.17;80.93;101077.19;5041434;28;47338;-79
2023/05/10 11:13:07;;;;;;;;;6.00;5.00;;;;;15.28;80.85;101091.97;5059669;28;45351;-79
2023/05/10 11:15:37;;;;;;;;;6.00;6.00;;;;;15.30;80.72;101101.72;5036273;28;45397;-79
2023/05/10 11:18:24;;;;;;;;;6.75;6.50;;;;;15.34;80.72;101102.44;5034748;28;45429;-79
2023/05/10 11:20:59;;;;;;;;;5.25;5.25;;;;;15.24;80.02;101074.22;5055806;28;46779;-79
2023/05/10 11:23:30;;;;;;;;;4.25;4.25;;;;;15.35;79.85;101093.41;5058419;28;45509;-79
2023/05/10 11:25:55;;;;;;;;;9.00;8.00;;;;;15.23;79.01;101069.78;5059751;28;45535;-79